Time;durP1;ratioP1;P1;durP2;ratioP2;P2;SDS_P1;SDS_P2;PMS_P1;PMS_P2;Temp;Humidity;BMP_temperature;BMP_pressure;BME280_temperature;BME280_humidity;BME280_pressure;Samples;Min_cycle;Max_cycle;Signal;HPM_P1;HPM_P2
2023/06/06 00:00:04;;;;;;;;;;;13.00;99.90;;;;;;5133807;27;20507;-44
2023/06/06 00:02:31;;;;;;;;;;;12.90;99.90;;;;;;5133751;27;19907;-46
2023/06/06 00:04:57;;;;;;;;;;;12.90;99.90;;;;;;5132900;27;19911;-44
2023/06/06 00:07:22;;;;;;;;;;;12.90;99.90;;;;;;5133670;27;20376;-44
2023/06/06 00:09:48;;;;;;;;;;;12.90;99.90;;;;;;5132805;28;20009;-44
2023/06/06 00:12:13;;;;;;;;;;;12.80;99.90;;;;;;5133814;28;19966;-44
2023/06/06 00:14:40;;;;;;;;;;;12.80;99.90;;;;;;5133589;28;19907;-45
2023/06/06 00:17:06;;;;;;;;;;;12.70;99.90;;;;;;5132841;28;20044;-46
2023/06/06 00:19:32;;;;;;;;;;;12.70;99.90;;;;;;5133619;28;19911;-43
2023/06/06 00:21:58;;;;;;;;;;;12.70;99.90;;;;;;5133453;28;19914;-44
2023/06/06 00:24:24;;;;;;;;;;;12.70;99.90;;;;;;5132757;28;20003;-45
2023/06/06 00:26:50;;;;;;;;;;;12.70;99.90;;;;;;5133548;28;20056;-44
2023/06/06 00:29:15;;;;;;;;;;;12.70;99.90;;;;;;5133602;28;19997;-44
2023/06/06 00:31:41;;;;;;;;;;;12.60;99.90;;;;;;5132650;28;20014;-47
2023/06/06 00:34:06;;;;;;;;;;;12.70;99.90;;;;;;5133529;28;19913;-43
2023/06/06 00:36:32;;;;;;;;;;;12.60;99.90;;;;;;5133199;28;19908;-44
2023/06/06 00:38:57;;;;;;;;;;;12.60;99.90;;;;;;5132630;28;19915;-44
2023/06/06 00:41:23;;;;;;;;;;;12.60;99.90;;;;;;5133388;28;19950;-44
2023/06/06 00:43:48;;;;;;;;;;;12.60;99.90;;;;;;5133517;28;19908;-42
2023/06/06 00:46:15;;;;;;;;;;;12.50;99.90;;;;;;5132768;27;19911;-43
2023/06/06 00:48:41;;;;;;;;;;;12.50;99.90;;;;;;5137097;27;19914;-44
2023/06/06 00:51:08;;;;;;;;;;;12.50;99.90;;;;;;5137248;27;19907;-46
2023/06/06 00:53:33;;;;;;;;;;;12.50;99.90;;;;;;5136530;27;20002;-44
2023/06/06 00:55:59;;;;;;;;;;;12.40;99.90;;;;;;5137216;27;19974;-46
2023/06/06 00:58:27;;;;;;;;;;;12.40;99.90;;;;;;5137116;27;19922;-43
2023/06/06 01:00:52;;;;;;;;;;;12.40;99.90;;;;;;5136398;27;19943;-45
2023/06/06 01:03:20;;;;;;;;;;;12.40;99.90;;;;;;5137121;27;19907;-44
2023/06/06 01:05:46;;;;;;;;;;;12.30;99.90;;;;;;5136945;27;20001;-43
2023/06/06 01:08:12;;;;;;;;;;;12.30;99.90;;;;;;5136281;27;20052;-43
2023/06/06 01:10:39;;;;;;;;;;;12.30;99.90;;;;;;5136942;27;19907;-43
2023/06/06 01:13:09;;;;;;;;;;;12.30;99.90;;;;;;5136183;27;19911;-46
2023/06/06 01:15:55;;;;;;;;;;;12.20;99.90;;;;;;5136870;27;19964;-43
2023/06/06 01:18:21;;;;;;;;;;;12.20;99.90;;;;;;5135838;27;19915;-42
2023/06/06 01:20:47;;;;;;;;;;;12.20;99.90;;;;;;5135892;27;19907;-44
2023/06/06 01:23:13;;;;;;;;;;;12.20;99.90;;;;;;5118274;27;19930;-45
2023/06/06 01:25:40;;;;;;;;;;;12.20;99.90;;;;;;5136640;27;19908;-46
2023/06/06 01:28:12;;;;;;;;;;;12.20;99.90;;;;;;5135750;27;20357;-44
2023/06/06 01:30:39;;;;;;;;;;;12.10;99.90;;;;;;5136512;27;19908;-44
2023/06/06 01:33:23;;;;;;;;;;;12.20;99.90;;;;;;5136593;27;19914;-46
2023/06/06 01:35:58;;;;;;;;;;;12.10;99.90;;;;;;5135667;27;19994;-44
2023/06/06 01:38:24;;;;;;;;;;;12.10;99.90;;;;;;5136176;27;19926;-43
2023/06/06 01:40:52;;;;;;;;;;;12.10;99.90;;;;;;5136367;27;19915;-44
2023/06/06 01:43:18;;;;;;;;;;;12.10;99.90;;;;;;5135576;27;19911;-45
2023/06/06 01:45:45;;;;;;;;;;;12.10;99.90;;;;;;5136267;27;19911;-45
2023/06/06 01:48:11;;;;;;;;;;;12.10;99.90;;;;;;5135498;27;19986;-45
2023/06/06 01:50:37;;;;;;;;;;;12.00;99.90;;;;;;5136161;27;19994;-45
2023/06/06 01:53:02;;;;;;;;;;;12.00;99.90;;;;;;5136068;27;19907;-45
2023/06/06 01:55:28;;;;;;;;;;;12.00;99.90;;;;;;5135344;27;19930;-43
2023/06/06 01:57:53;;;;;;;;;;;12.00;99.90;;;;;;5135484;27;19922;-44
2023/06/06 02:00:20;;;;;;;;;;;11.90;99.90;;;;;;5135339;27;20342;-42
2023/06/06 02:02:45;;;;;;;;;;;11.90;99.90;;;;;;5135162;27;19911;-42
2023/06/06 02:05:12;;;;;;;;;;;11.90;99.90;;;;;;5135874;27;19908;-42
2023/06/06 02:07:37;;;;;;;;;;;11.80;99.90;;;;;;5135798;27;20400;-44
2023/06/06 02:10:04;;;;;;;;;;;11.90;99.90;;;;;;5135047;27;19946;-43
2023/06/06 02:12:30;;;;;;;;;;;11.90;99.90;;;;;;5135618;27;20335;-43
2023/06/06 02:14:56;;;;;;;;;;;11.80;99.90;;;;;;5135751;27;19959;-43
2023/06/06 02:17:22;;;;;;;;;;;11.80;99.90;;;;;;5134739;27;20281;-44
2023/06/06 02:19:48;;;;;;;;;;;11.70;99.90;;;;;;5135634;27;19907;-43
2023/06/06 02:22:13;;;;;;;;;;;11.70;99.90;;;;;;5135729;27;19908;-44
2023/06/06 02:24:40;;;;;;;;;;;11.70;99.90;;;;;;5134823;27;19907;-47
2023/06/06 02:27:09;;;;;;;;;;;11.60;99.90;;;;;;5135411;27;20006;-43
2023/06/06 02:29:35;;;;;;;;;;;11.50;99.90;;;;;;5135340;27;19911;-47
2023/06/06 02:32:01;;;;;;;;;;;11.50;99.90;;;;;;5134730;27;19907;-43
2023/06/06 02:34:27;;;;;;;;;;;11.50;99.90;;;;;;5135347;27;19908;-43
2023/06/06 02:36:53;;;;;;;;;;;11.50;99.90;;;;;;5135081;27;20354;-44
2023/06/06 02:39:20;;;;;;;;;;;11.50;99.90;;;;;;5134519;27;19941;-43
2023/06/06 02:41:45;;;;;;;;;;;11.50;99.90;;;;;;5135528;27;20374;-42
2023/06/06 02:44:11;;;;;;;;;;;11.50;99.90;;;;;;5135114;27;20316;-43
2023/06/06 02:46:36;;;;;;;;;;;11.40;99.90;;;;;;5134351;27;19907;-45
2023/06/06 02:49:02;;;;;;;;;;;11.40;99.90;;;;;;5134919;27;19952;-43
2023/06/06 02:51:27;;;;;;;;;;;11.40;99.90;;;;;;5134257;27;19952;-46
2023/06/06 02:53:53;;;;;;;;;;;11.40;99.90;;;;;;5134887;27;19908;-43
2023/06/06 02:56:18;;;;;;;;;;;11.40;99.90;;;;;;5134888;27;20002;-44
2023/06/06 02:58:44;;;;;;;;;;;11.40;99.90;;;;;;5134001;27;20402;-44
2023/06/06 03:01:12;;;;;;;;;;;11.40;99.90;;;;;;5134893;27;19930;-44
2023/06/06 03:03:38;;;;;;;;;;;11.40;99.90;;;;;;5134710;27;20471;-43
2023/06/06 03:06:03;;;;;;;;;;;11.40;99.90;;;;;;5133987;27;20025;-43
2023/06/06 03:08:29;;;;;;;;;;;11.40;99.90;;;;;;5134573;27;19908;-43
2023/06/06 03:10:54;;;;;;;;;;;11.40;99.90;;;;;;5134401;27;19954;-43
2023/06/06 03:13:20;;;;;;;;;;;11.40;99.90;;;;;;5133788;27;19935;-44
2023/06/06 03:15:46;;;;;;;;;;;11.40;99.90;;;;;;5134436;27;19908;-44
2023/06/06 03:18:16;;;;;;;;;;;11.40;99.90;;;;;;5134457;27;19915;-44
2023/06/06 03:20:46;;;;;;;;;;;11.40;99.90;;;;;;5133915;27;19912;-42
2023/06/06 03:23:12;;;;;;;;;;;11.40;99.90;;;;;;5134290;27;20460;-44
2023/06/06 03:25:41;;;;;;;;;;;11.40;99.90;;;;;;5134277;27;19908;-43
2023/06/06 03:28:07;;;;;;;;;;;11.40;99.90;;;;;;5133639;27;19908;-47
2023/06/06 03:30:32;;;;;;;;;;;11.30;99.90;;;;;;5134218;27;20266;-43
2023/06/06 03:33:00;;;;;;;;;;;11.30;99.90;;;;;;5134343;27;20281;-44
2023/06/06 03:35:26;;;;;;;;;;;11.30;99.90;;;;;;5133477;27;19922;-45
2023/06/06 03:37:55;;;;;;;;;;;11.30;99.90;;;;;;5133824;27;20346;-43
2023/06/06 03:40:24;;;;;;;;;;;11.30;99.90;;;;;;5134168;27;19915;-42
2023/06/06 03:42:50;;;;;;;;;;;11.30;99.90;;;;;;5133508;27;19907;-45
2023/06/06 03:45:19;;;;;;;;;;;11.30;99.90;;;;;;5134058;27;19943;-44
2023/06/06 03:47:45;;;;;;;;;;;11.30;99.90;;;;;;5133163;27;19914;-48
2023/06/06 03:50:10;;;;;;;;;;;11.30;99.90;;;;;;5133962;27;19907;-44
2023/06/06 03:52:36;;;;;;;;;;;11.30;99.90;;;;;;5133855;27;20374;-46
2023/06/06 03:55:02;;;;;;;;;;;11.30;99.90;;;;;;5133179;27;19918;-44
2023/06/06 03:57:28;;;;;;;;;;;11.30;99.90;;;;;;5133721;27;19956;-43
2023/06/06 03:59:54;;;;;;;;;;;11.40;99.90;;;;;;5133980;27;19986;-44
2023/06/06 04:02:20;;;;;;;;;;;11.40;99.90;;;;;;5133111;27;20010;-44
2023/06/06 04:04:45;;;;;;;;;;;11.40;99.90;;;;;;5133610;27;20369;-43
2023/06/06 04:07:10;;;;;;;;;;;11.40;99.90;;;;;;5133762;27;19907;-46
2023/06/06 04:09:36;;;;;;;;;;;11.50;99.90;;;;;;5132837;28;19908;-43
2023/06/06 04:12:02;;;;;;;;;;;11.50;99.90;;;;;;5133910;28;19908;-47
2023/06/06 04:14:27;;;;;;;;;;;11.40;99.90;;;;;;5133691;28;19908;-45
2023/06/06 04:16:53;;;;;;;;;;;11.50;99.90;;;;;;5132808;28;19908;-44
2023/06/06 04:19:19;;;;;;;;;;;11.50;99.90;;;;;;5133640;28;19964;-45
2023/06/06 04:21:45;;;;;;;;;;;11.50;99.90;;;;;;5134153;27;19946;-43
2023/06/06 04:24:11;;;;;;;;;;;11.50;99.90;;;;;;5137212;27;20063;-46
2023/06/06 04:26:37;;;;;;;;;;;11.60;99.90;;;;;;5137709;27;20374;-43
2023/06/06 04:29:02;;;;;;;;;;;11.50;99.90;;;;;;5137937;27;19955;-44
2023/06/06 04:31:32;;;;;;;;;;;11.60;99.90;;;;;;5136893;27;20001;-43
2023/06/06 04:34:00;;;;;;;;;;;11.60;99.90;;;;;;5137628;27;19907;-44
2023/06/06 04:36:26;;;;;;;;;;;11.60;99.90;;;;;;5137536;27;19909;-43
2023/06/06 04:38:52;;;;;;;;;;;11.70;99.90;;;;;;5136544;27;19919;-44
2023/06/06 04:41:22;;;;;;;;;;;11.70;99.90;;;;;;5137526;27;20337;-43
2023/06/06 04:43:51;;;;;;;;;;;11.70;99.90;;;;;;5137450;27;19907;-43
2023/06/06 04:46:21;;;;;;;;;;;11.70;99.90;;;;;;5136653;27;20284;-43
2023/06/06 04:48:53;;;;;;;;;;;11.80;99.90;;;;;;5137295;27;19960;-47
2023/06/06 04:51:20;;;;;;;;;;;11.80;99.90;;;;;;5136595;27;19912;-43
2023/06/06 04:53:46;;;;;;;;;;;11.90;99.90;;;;;;5137195;27;19912;-43
2023/06/06 04:56:12;;;;;;;;;;;11.90;99.90;;;;;;5137203;27;19907;-43
2023/06/06 04:58:38;;;;;;;;;;;11.90;99.90;;;;;;5136303;27;20052;-43
2023/06/06 05:01:04;;;;;;;;;;;11.90;99.90;;;;;;5137118;27;19961;-43
2023/06/06 05:03:31;;;;;;;;;;;12.00;99.90;;;;;;5137091;27;20392;-44
2023/06/06 05:05:56;;;;;;;;;;;12.10;99.90;;;;;;5136419;27;19946;-43
2023/06/06 05:08:22;;;;;;;;;;;12.10;99.90;;;;;;5136872;27;19911;-44
2023/06/06 05:10:47;;;;;;;;;;;12.10;99.90;;;;;;5137011;27;20265;-44
2023/06/06 05:13:15;;;;;;;;;;;12.10;99.90;;;;;;5136047;27;19907;-44
2023/06/06 05:15:41;;;;;;;;;;;12.10;99.90;;;;;;5136816;27;19998;-45
2023/06/06 05:18:07;;;;;;;;;;;12.30;99.90;;;;;;5136799;27;20002;-42
2023/06/06 05:20:33;;;;;;;;;;;12.30;99.90;;;;;;5135951;27;19907;-43
2023/06/06 05:22:59;;;;;;;;;;;12.30;99.90;;;;;;5136846;27;19907;-43
2023/06/06 05:25:25;;;;;;;;;;;12.40;99.90;;;;;;5136656;27;19911;-44
2023/06/06 05:27:51;;;;;;;;;;;12.40;99.90;;;;;;5135995;27;19914;-47
2023/06/06 05:30:17;;;;;;;;;;;12.50;99.90;;;;;;5136552;27;19930;-44
2023/06/06 05:32:43;;;;;;;;;;;12.50;99.90;;;;;;5136395;27;20369;-44
2023/06/06 05:35:08;;;;;;;;;;;12.50;99.90;;;;;;5135777;27;19960;-43
2023/06/06 05:37:34;;;;;;;;;;;12.60;99.90;;;;;;5136117;27;19923;-45
2023/06/06 05:39:59;;;;;;;;;;;12.60;99.90;;;;;;5136527;27;20331;-43
2023/06/06 05:42:25;;;;;;;;;;;12.70;99.90;;;;;;5135525;27;20334;-43
2023/06/06 05:44:51;;;;;;;;;;;12.70;99.90;;;;;;5136310;27;19908;-48
2023/06/06 05:47:16;;;;;;;;;;;12.70;99.90;;;;;;5135535;27;19908;-53
2023/06/06 05:49:42;;;;;;;;;;;12.80;99.90;;;;;;5136296;27;19911;-43
2023/06/06 05:52:07;;;;;;;;;;;12.80;99.90;;;;;;5136265;27;19912;-44
2023/06/06 05:54:34;;;;;;;;;;;12.90;99.90;;;;;;5135352;27;20002;-44
2023/06/06 05:57:00;;;;;;;;;;;12.90;99.90;;;;;;5136091;27;19908;-43
2023/06/06 05:59:26;;;;;;;;;;;13.00;99.90;;;;;;5135950;27;19918;-45
2023/06/06 06:01:52;;;;;;;;;;;13.00;99.90;;;;;;5135481;27;19915;-44
2023/06/06 06:04:18;;;;;;;;;;;13.10;99.90;;;;;;5136112;27;20357;-42
2023/06/06 06:06:46;;;;;;;;;;;13.20;99.90;;;;;;5135911;27;19914;-44
2023/06/06 06:09:12;;;;;;;;;;;13.20;99.90;;;;;;5135127;27;19908;-43
2023/06/06 06:11:38;;;;;;;;;;;13.20;99.90;;;;;;5135801;27;20369;-44
2023/06/06 06:14:03;;;;;;;;;;;13.30;99.90;;;;;;5135634;27;19911;-44
2023/06/06 06:16:29;;;;;;;;;;;13.30;99.90;;;;;;5135027;27;20337;-44
2023/06/06 06:18:54;;;;;;;;;;;13.30;99.90;;;;;;5135706;27;19969;-44
2023/06/06 06:21:21;;;;;;;;;;;13.40;99.90;;;;;;5135703;27;19915;-43
2023/06/06 06:23:47;;;;;;;;;;;13.40;99.90;;;;;;5134728;27;19998;-43
2023/06/06 06:26:13;;;;;;;;;;;13.50;99.90;;;;;;5135559;27;19908;-46
2023/06/06 06:28:38;;;;;;;;;;;13.50;99.90;;;;;;5135291;27;19914;-45
2023/06/06 06:31:04;;;;;;;;;;;13.60;99.90;;;;;;5134730;27;19908;-44
2023/06/06 06:33:30;;;;;;;;;;;13.70;99.90;;;;;;5135280;27;19908;-43
2023/06/06 06:35:56;;;;;;;;;;;13.70;99.90;;;;;;5135456;27;19987;-44
2023/06/06 06:38:24;;;;;;;;;;;13.80;99.90;;;;;;5134357;27;20020;-44
2023/06/06 06:40:50;;;;;;;;;;;13.90;99.90;;;;;;5135065;27;20362;-44
2023/06/06 06:43:16;;;;;;;;;;;13.90;99.90;;;;;;5135119;27;19914;-47
2023/06/06 06:45:41;;;;;;;;;;;13.90;99.90;;;;;;5133508;27;19907;-47
2023/06/06 06:48:06;;;;;;;;;;;14.00;99.90;;;;;;5135050;27;20329;-44
2023/06/06 06:50:32;;;;;;;;;;;14.00;99.90;;;;;;5134750;27;19907;-48
2023/06/06 06:52:57;;;;;;;;;;;14.10;99.90;;;;;;5134678;27;19928;-45
2023/06/06 06:55:23;;;;;;;;;;;14.10;99.90;;;;;;5134877;27;20002;-46
2023/06/06 06:57:50;;;;;;;;;;;14.20;99.90;;;;;;5133953;27;19922;-45
2023/06/06 07:00:18;;;;;;;;;;;14.30;99.90;;;;;;5134982;27;19950;-44
2023/06/06 07:02:44;;;;;;;;;;;14.30;99.90;;;;;;5134779;27;19913;-46
2023/06/06 07:05:10;;;;;;;;;;;14.30;99.90;;;;;;5133981;27;19907;-45
2023/06/06 07:07:42;;;;;;;;;;;14.40;99.90;;;;;;5134630;27;20350;-45
2023/06/06 07:10:07;;;;;;;;;;;14.50;99.90;;;;;;5134747;27;19998;-43
2023/06/06 07:12:33;;;;;;;;;;;14.60;99.90;;;;;;5133553;27;20050;-45
2023/06/06 07:14:58;;;;;;;;;;;14.60;99.90;;;;;;5134534;27;19915;-44
2023/06/06 07:17:26;;;;;;;;;;;14.70;99.90;;;;;;5134506;27;19919;-45
2023/06/06 07:19:51;;;;;;;;;;;14.70;99.90;;;;;;5133612;27;20377;-48
2023/06/06 07:22:17;;;;;;;;;;;14.80;99.90;;;;;;5134481;27;19943;-46
2023/06/06 07:24:43;;;;;;;;;;;14.80;99.90;;;;;;5134266;27;20331;-44
2023/06/06 07:27:09;;;;;;;;;;;14.90;99.90;;;;;;5133631;27;19918;-43
2023/06/06 07:29:34;;;;;;;;;;;15.00;99.90;;;;;;5134142;27;19907;-42
2023/06/06 07:32:00;;;;;;;;;;;15.00;99.90;;;;;;5134363;27;19907;-45
2023/06/06 07:34:26;;;;;;;;;;;15.10;99.90;;;;;;5133395;27;19919;-44
2023/06/06 07:36:52;;;;;;;;;;;15.10;99.90;;;;;;5134035;27;19934;-44
2023/06/06 07:39:17;;;;;;;;;;;15.20;99.90;;;;;;5134082;27;20017;-44
2023/06/06 07:41:43;;;;;;;;;;;15.30;99.90;;;;;;5133541;27;19907;-46
2023/06/06 07:44:09;;;;;;;;;;;15.30;99.90;;;;;;5134142;27;19914;-44
2023/06/06 07:46:34;;;;;;;;;;;15.40;99.90;;;;;;5133990;27;19915;-47
2023/06/06 07:49:00;;;;;;;;;;;15.40;99.90;;;;;;5133330;27;19908;-43
2023/06/06 07:51:25;;;;;;;;;;;15.50;99.90;;;;;;5133895;27;19911;-45
2023/06/06 07:53:51;;;;;;;;;;;15.60;99.90;;;;;;5133639;27;19960;-45
2023/06/06 07:56:17;;;;;;;;;;;15.60;99.90;;;;;;5132759;27;19958;-44
2023/06/06 07:58:43;;;;;;;;;;;15.70;99.90;;;;;;5133641;27;19935;-45
2023/06/06 08:01:12;;;;;;;;;;;15.80;99.90;;;;;;5133176;27;19914;-47
2023/06/06 08:03:38;;;;;;;;;;;15.90;99.90;;;;;;5133708;27;20350;-45
2023/06/06 08:06:03;;;;;;;;;;;15.90;99.90;;;;;;5133872;27;20002;-46
2023/06/06 08:08:29;;;;;;;;;;;16.00;99.90;;;;;;5132899;27;20328;-45
2023/06/06 08:10:55;;;;;;;;;;;16.10;99.90;;;;;;5133669;27;20373;-47
2023/06/06 08:13:20;;;;;;;;;;;16.10;99.90;;;;;;5133785;28;19914;-47
2023/06/06 08:15:46;;;;;;;;;;;16.10;99.90;;;;;;5132826;28;19909;-45
2023/06/06 08:18:14;;;;;;;;;;;16.20;99.90;;;;;;5133720;28;20378;-44
2023/06/06 08:20:40;;;;;;;;;;;16.30;99.90;;;;;;5133555;28;20378;-45
2023/06/06 08:23:06;;;;;;;;;;;16.40;99.90;;;;;;5132736;28;19937;-44
2023/06/06 08:25:32;;;;;;;;;;;16.50;99.90;;;;;;5133555;28;19907;-44
2023/06/06 08:27:58;;;;;;;;;;;16.50;99.90;;;;;;5133655;28;20370;-46
2023/06/06 08:30:23;;;;;;;;;;;16.60;99.90;;;;;;5132607;28;19911;-43
2023/06/06 08:32:50;;;;;;;;;;;16.70;99.90;;;;;;5133573;28;20049;-44
2023/06/06 08:35:16;;;;;;;;;;;16.80;99.90;;;;;;5133571;28;19918;-44
2023/06/06 08:37:41;;;;;;;;;;;16.80;99.90;;;;;;5132227;28;20004;-44
2023/06/06 08:40:08;;;;;;;;;;;16.90;99.90;;;;;;5133588;28;19908;-45
2023/06/06 08:42:37;;;;;;;;;;;17.00;99.90;;;;;;5133391;28;20297;-44
2023/06/06 08:45:03;;;;;;;;;;;17.10;99.90;;;;;;5132723;28;19921;-44
2023/06/06 08:47:29;;;;;;;;;;;17.10;99.90;;;;;;5133271;28;19907;-43
2023/06/06 08:49:55;;;;;;;;;;;17.20;99.90;;;;;;5133416;28;19954;-45
2023/06/06 08:52:21;;;;;;;;;;;17.30;99.90;;;;;;5132563;28;19915;-48
2023/06/06 08:54:47;;;;;;;;;;;17.40;99.90;;;;;;5133215;28;20242;-47
2023/06/06 08:57:13;;;;;;;;;;;17.40;99.90;;;;;;5132481;28;19907;-43
2023/06/06 08:59:39;;;;;;;;;;;17.50;99.90;;;;;;5133242;28;19915;-45
2023/06/06 09:02:07;;;;;;;;;;;17.60;99.90;;;;;;5133378;28;19912;-44
2023/06/06 09:04:33;;;;;;;;;;;17.70;99.90;;;;;;5132413;28;19922;-45
2023/06/06 09:07:04;;;;;;;;;;;17.80;99.90;;;;;;5133144;28;20269;-43
2023/06/06 09:09:33;;;;;;;;;;;17.90;99.90;;;;;;5136450;27;19911;-44
2023/06/06 09:11:59;;;;;;;;;;;17.90;99.90;;;;;;5136318;27;19908;-45
2023/06/06 09:14:25;;;;;;;;;;;18.00;99.90;;;;;;5136892;27;19908;-45
2023/06/06 09:16:53;;;;;;;;;;;18.00;99.90;;;;;;5136953;27;20073;-44
2023/06/06 09:19:25;;;;;;;;;;;18.10;99.90;;;;;;5135936;27;19915;-46
2023/06/06 09:21:50;;;;;;;;;;;18.30;99.90;;;;;;5136987;27;19911;-46
2023/06/06 09:24:16;;;;;;;;;;;18.40;99.90;;;;;;5136755;27;20301;-44
2023/06/06 09:26:42;;;;;;;;;;;18.40;99.90;;;;;;5136124;27;19934;-45
2023/06/06 09:29:08;;;;;;;;;;;18.50;99.90;;;;;;5136712;27;20340;-44
2023/06/06 09:31:37;;;;;;;;;;;18.50;99.90;;;;;;5136516;27;19907;-44
2023/06/06 09:34:03;;;;;;;;;;;18.60;99.90;;;;;;5135878;27;20350;-46
2023/06/06 09:36:29;;;;;;;;;;;18.70;99.90;;;;;;5136499;27;20007;-44
2023/06/06 09:38:58;;;;;;;;;;;18.80;99.90;;;;;;5136230;27;20366;-44
2023/06/06 09:41:26;;;;;;;;;;;18.80;99.90;;;;;;5135723;27;19954;-45
2023/06/06 09:43:52;;;;;;;;;;;18.90;99.90;;;;;;5136434;27;19951;-43
2023/06/06 09:46:18;;;;;;;;;;;19.00;99.90;;;;;;5136296;27;19908;-46
2023/06/06 09:48:53;;;;;;;;;;;19.00;99.90;;;;;;5135468;27;20239;-44
2023/06/06 09:51:19;;;;;;;;;;;19.10;99.90;;;;;;5136276;27;19961;-46
2023/06/06 09:53:50;;;;;;;;;;;19.10;99.90;;;;;;5135305;27;20449;-47
2023/06/06 09:56:18;;;;;;;;;;;19.20;99.90;;;;;;5136272;27;19958;-44
2023/06/06 09:58:44;;;;;;;;;;;19.20;99.90;;;;;;5136183;27;20077;-44
2023/06/06 10:01:09;;;;;;;;;;;19.30;99.90;;;;;;5135251;27;20413;-45
2023/06/06 10:03:37;;;;;;;;;;;19.30;99.90;;;;;;5135902;27;19911;-48
2023/06/06 10:06:05;;;;;;;;;;;19.30;99.90;;;;;;5136128;27;19914;-45
2023/06/06 10:08:31;;;;;;;;;;;19.40;99.90;;;;;;5134910;27;19908;-43
2023/06/06 10:10:57;;;;;;;;;;;19.50;99.90;;;;;;5135874;27;19912;-44
2023/06/06 10:13:23;;;;;;;;;;;19.60;99.90;;;;;;5135810;27;19915;-46
2023/06/06 10:15:48;;;;;;;;;;;19.70;99.90;;;;;;5134920;27;19907;-44
2023/06/06 10:18:15;;;;;;;;;;;19.70;99.90;;;;;;5135671;27;20392;-44
2023/06/06 10:20:41;;;;;;;;;;;19.80;99.90;;;;;;5134522;27;20370;-49
2023/06/06 10:23:06;;;;;;;;;;;19.90;99.90;;;;;;5134979;27;19914;-44
2023/06/06 10:25:32;;;;;;;;;;;19.90;99.90;;;;;;5135392;27;19907;-45
2023/06/06 10:28:03;;;;;;;;;;;20.00;99.90;;;;;;5135439;27;20415;-43
2023/06/06 10:30:34;;;;;;;;;;;20.10;99.90;;;;;;5134614;27;19911;-46
2023/06/06 10:33:08;;;;;;;;;;;20.20;99.90;;;;;;5135438;27;19908;-44
2023/06/06 10:35:34;;;;;;;;;;;20.20;99.90;;;;;;5135293;27;19914;-44
2023/06/06 10:38:04;;;;;;;;;;;20.30;99.90;;;;;;5134440;27;19919;-44
2023/06/06 10:40:48;;;;;;;;;;;20.40;99.90;;;;;;5135252;27;20331;-44
2023/06/06 10:43:15;;;;;;;;;;;20.40;99.90;;;;;;5134642;27;19998;-44
2023/06/06 10:45:45;;;;;;;;;;;20.40;99.90;;;;;;5135119;27;19911;-45
2023/06/06 10:48:11;;;;;;;;;;;20.50;99.90;;;;;;5135200;27;20010;-45
2023/06/06 10:50:37;;;;;;;;;;;20.50;99.90;;;;;;5133987;27;20282;-43
2023/06/06 10:53:06;;;;;;;;;;;20.60;99.90;;;;;;5135044;27;19908;-45
2023/06/06 10:55:32;;;;;;;;;;;20.60;99.90;;;;;;5134741;27;19968;-44
2023/06/06 10:58:13;;;;;;;;;;;20.70;99.90;;;;;;5134254;27;19922;-45
2023/06/06 11:00:43;;;;;;;;;;;20.70;99.90;;;;;;5134887;27;19908;-43
2023/06/06 11:03:09;;;;;;;;;;;20.80;99.90;;;;;;5135243;27;19908;-45
2023/06/06 11:05:53;;;;;;;;;;;20.80;99.80;;;;;;5133983;27;19915;-47
2023/06/06 11:08:30;;;;;;;;;;;20.80;99.50;;;;;;5134753;27;19907;-47
2023/06/06 11:11:13;;;;;;;;;;;20.90;99.60;;;;;;5134042;27;19912;-42
2023/06/06 11:13:47;;;;;;;;;;;20.90;99.50;;;;;;5134617;27;19908;-46
2023/06/06 11:16:13;;;;;;;;;;;21.00;99.50;;;;;;5134617;27;19918;-46
2023/06/06 11:18:41;;;;;;;;;;;21.00;99.00;;;;;;5133594;27;19915;-45
2023/06/06 11:21:07;;;;;;;;;;;21.00;98.70;;;;;;5134438;27;19947;-44
2023/06/06 11:23:37;;;;;;;;;;;21.10;99.10;;;;;;5134374;27;19915;-48
2023/06/06 11:26:03;;;;;;;;;;;21.10;98.80;;;;;;5133664;27;19908;-45
2023/06/06 11:28:30;;;;;;;;;;;21.20;99.10;;;;;;5134291;27;19961;-44
2023/06/06 11:30:56;;;;;;;;;;;21.20;98.70;;;;;;5134053;27;20366;-47
2023/06/06 11:33:21;;;;;;;;;;;21.30;98.60;;;;;;5133451;27;19912;-44
2023/06/06 11:35:47;;;;;;;;;;;21.30;98.30;;;;;;5134051;27;19986;-42
2023/06/06 11:38:13;;;;;;;;;;;21.30;98.20;;;;;;5133935;27;19941;-46
2023/06/06 11:40:38;;;;;;;;;;;21.30;98.20;;;;;;5133321;27;19943;-44
2023/06/06 11:43:05;;;;;;;;;;;21.30;97.50;;;;;;5134150;27;19908;-45
2023/06/06 11:45:31;;;;;;;;;;;21.30;97.70;;;;;;5134252;27;19959;-46
2023/06/06 11:47:56;;;;;;;;;;;21.30;97.90;;;;;;5133197;27;20289;-44
2023/06/06 11:50:28;;;;;;;;;;;21.40;98.10;;;;;;5134014;27;19915;-43
2023/06/06 11:52:53;;;;;;;;;;;21.50;97.70;;;;;;5133920;27;19908;-44
2023/06/06 11:55:19;;;;;;;;;;;21.60;97.40;;;;;;5133174;27;19914;-45
2023/06/06 11:57:44;;;;;;;;;;;21.50;97.10;;;;;;5133683;27;20361;-44
2023/06/06 12:00:12;;;;;;;;;;;21.60;96.80;;;;;;5133153;27;19908;-45
2023/06/06 12:02:38;;;;;;;;;;;21.60;97.00;;;;;;5133658;27;19908;-46
2023/06/06 12:05:04;;;;;;;;;;;21.60;97.20;;;;;;5133865;27;19990;-45
2023/06/06 12:07:30;;;;;;;;;;;21.70;97.00;;;;;;5132973;27;19914;-45
2023/06/06 12:09:58;;;;;;;;;;;21.70;96.50;;;;;;5133832;27;20344;-43
2023/06/06 12:12:23;;;;;;;;;;;21.70;96.70;;;;;;5133621;28;19908;-45
2023/06/06 12:14:56;;;;;;;;;;;21.80;96.40;;;;;;5132931;28;20273;-44
2023/06/06 12:17:23;;;;;;;;;;;21.80;96.30;;;;;;5133732;28;19907;-44
2023/06/06 12:19:52;;;;;;;;;;;21.90;96.00;;;;;;5133656;28;19911;-44
2023/06/06 12:22:26;;;;;;;;;;;22.00;95.80;;;;;;5132952;28;20289;-46
2023/06/06 12:24:52;;;;;;;;;;;22.00;95.80;;;;;;5133377;28;19962;-45
2023/06/06 12:27:26;;;;;;;;;;;22.10;95.60;;;;;;5133638;28;20374;-43
2023/06/06 12:29:54;;;;;;;;;;;22.20;95.30;;;;;;5132958;28;19960;-45
2023/06/06 12:32:26;;;;;;;;;;;22.40;95.60;;;;;;5133549;28;20353;-43
2023/06/06 12:35:10;;;;;;;;;;;22.50;95.30;;;;;;5133426;28;19908;-45
2023/06/06 12:37:38;;;;;;;;;;;22.70;95.10;;;;;;5132668;28;20391;-45
2023/06/06 12:40:18;;;;;;;;;;;22.90;94.70;;;;;;5133320;28;19908;-44
2023/06/06 12:42:50;;;;;;;;;;;23.00;94.20;;;;;;5133203;27;19907;-46
2023/06/06 12:45:15;;;;;;;;;;;23.20;94.20;;;;;;5137600;27;19907;-45
2023/06/06 12:47:41;;;;;;;;;;;23.40;93.90;;;;;;5137323;27;19914;-45
2023/06/06 12:50:07;;;;;;;;;;;23.60;93.20;;;;;;5136688;27;19952;-47
2023/06/06 12:52:33;;;;;;;;;;;23.80;93.30;;;;;;5137262;27;19915;-45
2023/06/06 12:54:58;;;;;;;;;;;23.90;92.40;;;;;;5137381;27;20273;-43
2023/06/06 12:57:24;;;;;;;;;;;24.20;92.30;;;;;;5136455;27;20149;-46
2023/06/06 12:59:50;;;;;;;;;;;24.30;91.90;;;;;;5137373;27;20011;-45
2023/06/06 13:02:16;;;;;;;;;;;24.50;91.80;;;;;;5137257;27;19907;-44
2023/06/06 13:04:42;;;;;;;;;;;24.70;91.50;;;;;;5136434;27;19915;-45
2023/06/06 13:07:08;;;;;;;;;;;24.90;91.30;;;;;;5137158;27;19915;-47
2023/06/06 13:09:34;;;;;;;;;;;25.10;90.90;;;;;;5137365;27;19907;-44
2023/06/06 13:12:00;;;;;;;;;;;25.20;89.40;;;;;;5136373;27;19943;-44
2023/06/06 13:14:27;;;;;;;;;;;25.40;89.70;;;;;;5136968;27;19908;-46
2023/06/06 13:16:52;;;;;;;;;;;25.60;89.10;;;;;;5136876;27;19911;-46
2023/06/06 13:19:18;;;;;;;;;;;25.70;86.10;;;;;;5136094;27;19916;-46
2023/06/06 13:21:45;;;;;;;;;;;25.80;85.90;;;;;;5136809;27;20007;-45
2023/06/06 13:24:12;;;;;;;;;;;25.90;86.60;;;;;;5136840;27;19915;-46
2023/06/06 13:26:38;;;;;;;;;;;26.10;86.50;;;;;;5136106;27;19914;-45
2023/06/06 13:29:03;;;;;;;;;;;26.10;84.60;;;;;;5136689;27;19908;-46
2023/06/06 13:31:29;;;;;;;;;;;26.20;84.40;;;;;;5135919;27;19908;-48
2023/06/06 13:33:54;;;;;;;;;;;26.30;84.70;;;;;;5136632;27;20002;-44
2023/06/06 13:36:20;;;;;;;;;;;26.40;83.00;;;;;;5136777;27;20273;-47
2023/06/06 13:38:45;;;;;;;;;;;26.40;82.40;;;;;;5135237;27;19923;-46
2023/06/06 13:41:11;;;;;;;;;;;26.50;80.80;;;;;;5136433;27;19953;-44
2023/06/06 13:43:37;;;;;;;;;;;26.60;79.90;;;;;;5136464;27;20055;-45
2023/06/06 13:46:02;;;;;;;;;;;26.60;80.00;;;;;;5135547;27;19947;-44
2023/06/06 13:48:27;;;;;;;;;;;26.70;79.50;;;;;;5136339;27;19914;-44
2023/06/06 13:50:53;;;;;;;;;;;26.80;78.90;;;;;;5136142;27;19907;-45
2023/06/06 13:53:20;;;;;;;;;;;26.80;78.20;;;;;;5135506;27;20289;-45
2023/06/06 13:55:47;;;;;;;;;;;26.80;77.30;;;;;;5136091;27;19954;-44
2023/06/06 13:58:17;;;;;;;;;;;26.80;77.50;;;;;;5136146;27;19923;-47
2023/06/06 14:00:44;;;;;;;;;;;26.90;77.90;;;;;;5135323;27;19918;-43
2023/06/06 14:03:09;;;;;;;;;;;27.00;77.50;;;;;;5136095;27;19912;-44
2023/06/06 14:05:35;;;;;;;;;;;27.10;77.10;;;;;;5135944;27;20259;-46
2023/06/06 14:08:00;;;;;;;;;;;27.30;75.50;;;;;;5135196;27;19921;-44
2023/06/06 14:10:26;;;;;;;;;;;27.40;75.40;;;;;;5136007;27;20278;-46
2023/06/06 14:12:52;;;;;;;;;;;27.40;73.10;;;;;;5135845;27;19958;-44